Time,TemperatureF,DewpointF,PressureIn,WindDirection,WindDirectionDegrees,WindSpeedMPH,WindSpeedGustMPH,Humidity,HourlyPrecipIn,Conditions,Clouds,dailyrainin,SoftwareType,DateUTC
2012-10-04 00:00:00,42.1,35.3,30.25,SSW,202,0.0,0.0,77,0.00,,,0.00,WUHU21623XXSP,2012-10-04 07:00:00,
2012-10-04 00:05:00,42.1,35.3,30.24,ESE,112,0.0,0.0,77,0.00,,,0.00,WUHU21623XXSP,2012-10-04 07:05:00,
2012-10-04 00:10:00,41.9,35.2,30.24,ESE,112,0.0,0.0,77,0.00,,,0.00,WUHU21623XXSP,2012-10-04 07:10:00,
2012-10-04 00:15:00,41.7,35.0,30.24,ESE,112,0.0,0.0,77,0.00,,,0.00,WUHU21623XXSP,2012-10-04 07:15:00,
2012-10-04 00:20:00,41.7,35.0,30.25,ESE,112,0.0,0.0,77,0.00,,,0.00,WUHU21623XXSP,2012-10-04 07:20:00,
2012-10-04 00:25:00,41.5,34.8,30.25,ESE,112,0.0,0.0,77,0.00,,,0.00,WUHU21623XXSP,2012-10-04 07:25:00,
2012-10-04 00:30:00,41.5,34.8,30.25,ESE,112,0.0,0.0,77,0.00,,,0.00,WUHU21623XXSP,2012-10-04 07:30:00,
2012-10-04 00:35:00,41.4,34.6,30.25,ESE,112,0.0,0.0,77,0.00,,,0.00,WUHU21623XXSP,2012-10-04 07:35:00,
2012-10-04 00:40:00,41.0,34.3,30.25,ESE,112,0.0,0.0,77,0.00,,,0.00,WUHU21623XXSP,2012-10-04 07:40:00,
2012-10-04 00:45:00,40.8,34.1,30.25,ESE,112,0.0,0.0,77,0.00,,,0.00,WUHU21623XXSP,2012-10-04 07:45:00,
2012-10-04 00:50:00,40.6,33.9,30.24,ESE,112,0.0,0.0,77,0.00,,,0.00,WUHU21623XXSP,2012-10-04 07:50:00,
2012-10-04 00:55:00,40.6,34.3,30.24,ESE,112,0.0,0.0,78,0.00,,,0.00,WUHU21623XXSP,2012-10-04 07:55:00,
2012-10-04 01:00:00,40.5,33.9,30.24,ESE,112,0.0,0.0,78,0.00,,,0.00,WUHU21623XXSP,2012-10-04 08:00:00,
2012-10-04 01:05:00,40.3,33.9,30.24,ESE,112,0.0,0.0,78,0.00,,,0.00,WUHU21623XXSP,2012-10-04 08:05:00,
2012-10-04 01:10:00,40.3,33.9,30.24,ESE,112,0.0,0.0,78,0.00,,,0.00,WUHU21623XXSP,2012-10-04 08:10:00,
2012-10-04 01:15:00,40.1,34.1,30.24,ESE,112,0.0,0.0,79,0.00,,,0.00,WUHU21623XXSP,2012-10-04 08:15:00,
2012-10-04 01:20:00,40.1,34.4,30.24,ENE,67,0.0,0.0,80,0.00,,,0.00,WUHU21623XXSP,2012-10-04 08:20:00,
2012-10-04 01:25:00,40.1,34.4,30.24,ENE,67,0.0,0.0,80,0.00,,,0.00,WUHU21623XXSP,2012-10-04 08:25:00,
2012-10-04 01:30:00,39.9,34.3,30.24,ENE,67,0.0,0.0,80,0.00,,,0.00,WUHU21623XXSP,2012-10-04 08:30:00,
2012-10-04 01:35:00,39.9,33.9,30.24,ENE,67,0.0,0.0,79,0.00,,,0.00,WUHU21623XXSP,2012-10-04 08:35:00,
2012-10-04 01:40:00,39.7,33.8,30.24,ENE,67,0.0,0.0,79,0.00,,,0.00,WUHU21623XXSP,2012-10-04 08:40:00,
2012-10-04 01:45:00,39.6,33.6,30.24,ENE,67,0.0,0.0,79,0.00,,,0.00,WUHU21623XXSP,2012-10-04 08:45:00,
2012-10-04 01:50:00,39.4,33.4,30.24,ENE,67,0.0,0.0,79,0.00,,,0.00,WUHU21623XXSP,2012-10-04 08:50:00,
2012-10-04 01:55:00,39.4,33.4,30.24,ENE,67,0.0,0.0,79,0.00,,,0.00,WUHU21623XXSP,2012-10-04 08:55:00,
2012-10-04 02:00:00,39.4,33.4,30.24,ENE,67,0.0,0.0,79,0.00,,,0.00,WUHU21623XXSP,2012-10-04 09:00:00,
2012-10-04 02:05:00,39.0,33.4,30.24,ENE,67,0.0,0.0,80,0.00,,,0.00,WUHU21623XXSP,2012-10-04 09:05:00,
2012-10-04 02:10:00,39.0,33.4,30.24,ENE,67,0.0,0.0,80,0.00,,,0.00,WUHU21623XXSP,2012-10-04 09:10:00,
2012-10-04 02:15:00,39.0,33.7,30.24,ENE,67,0.0,0.0,81,0.00,,,0.00,WUHU21623XXSP,2012-10-04 09:15:00,
2012-10-04 02:20:00,39.0,33.7,30.24,ENE,67,0.0,0.0,81,0.00,,,0.00,WUHU21623XXSP,2012-10-04 09:20:00,
2012-10-04 02:25:00,39.0,33.7,30.24,ENE,67,0.0,0.0,81,0.00,,,0.00,WUHU21623XXSP,2012-10-04 09:25:00,
2012-10-04 02:30:00,39.0,33.7,30.24,ENE,67,0.0,0.0,81,0.00,,,0.00,WUHU21623XXSP,2012-10-04 09:30:00,
2012-10-04 02:35:00,39.0,33.7,30.23,ENE,67,0.0,0.0,81,0.00,,,0.00,WUHU21623XXSP,2012-10-04 09:35:00,
2012-10-04 02:40:00,39.0,33.7,30.23,ENE,67,0.0,0.0,81,0.00,,,0.00,WUHU21623XXSP,2012-10-04 09:40:00,
2012-10-04 02:45:00,38.8,33.5,30.23,ENE,67,0.0,0.0,81,0.00,,,0.00,WUHU21623XXSP,2012-10-04 09:45:00,
2012-10-04 02:50:00,38.8,33.5,30.23,ENE,67,0.0,0.0,81,0.00,,,0.00,WUHU21623XXSP,2012-10-04 09:50:00,
2012-10-04 02:55:00,38.8,33.5,30.23,ENE,67,0.0,0.0,81,0.00,,,0.00,WUHU21623XXSP,2012-10-04 09:55:00,
2012-10-04 03:00:00,38.5,33.2,30.23,ENE,67,0.0,0.0,81,0.00,,,0.00,WUHU21623XXSP,2012-10-04 10:00:00,
2012-10-04 03:05:00,38.3,33.0,30.23,ENE,67,0.0,0.0,81,0.00,,,0.00,WUHU21623XXSP,2012-10-04 10:05:00,
2012-10-04 03:10:00,38.3,33.3,30.23,ENE,67,0.0,0.0,82,0.00,,,0.00,WUHU21623XXSP,2012-10-04 10:10:00,
2012-10-04 03:15:00,38.1,32.8,30.23,ENE,67,0.0,0.0,81,0.00,,,0.00,WUHU21623XXSP,2012-10-04 10:15:00,
2012-10-04 03:20:00,38.1,33.1,30.23,ENE,67,0.0,0.0,82,0.00,,,0.00,WUHU21623XXSP,2012-10-04 10:20:00,
2012-10-04 03:25:00,37.9,32.9,30.23,ENE,67,0.0,0.0,82,0.00,,,0.00,WUHU21623XXSP,2012-10-04 10:25:00,
2012-10-04 03:30:00,37.9,32.9,30.23,ENE,67,0.0,0.0,82,0.00,,,0.00,WUHU21623XXSP,2012-10-04 10:30:00,
2012-10-04 03:35:00,37.8,32.9,30.23,ENE,67,0.0,0.0,82,0.00,,,0.00,WUHU21623XXSP,2012-10-04 10:35:00,
2012-10-04 03:40:00,37.8,32.8,30.23,ENE,67,0.0,0.0,82,0.00,,,0.00,WUHU21623XXSP,2012-10-04 10:40:00,
2012-10-04 03:45:00,37.6,32.3,30.23,ENE,67,0.0,0.0,81,0.00,,,0.00,WUHU21623XXSP,2012-10-04 10:45:00,
2012-10-04 03:50:00,37.6,32.3,30.23,ENE,67,0.0,0.0,81,0.00,,,0.00,WUHU21623XXSP,2012-10-04 10:50:00,
2012-10-04 03:55:00,37.6,32.3,30.23,ENE,67,0.0,0.0,81,0.00,,,0.00,WUHU21623XXSP,2012-10-04 10:55:00,
2012-10-04 04:00:00,37.6,32.6,30.23,ENE,67,0.0,0.0,82,0.00,,,0.00,WUHU21623XXSP,2012-10-04 11:00:00,
2012-10-04 04:05:00,37.4,32.4,30.23,ENE,67,0.0,0.0,82,0.00,,,0.00,WUHU21623XXSP,2012-10-04 11:05:00,
2012-10-04 04:10:00,37.4,32.4,30.23,ENE,67,0.0,0.0,82,0.00,,,0.00,WUHU21623XXSP,2012-10-04 11:10:00,
2012-10-04 04:15:00,37.2,32.2,30.23,ENE,67,0.0,0.0,82,0.00,,,0.00,WUHU21623XXSP,2012-10-04 11:15:00,
2012-10-04 04:20:00,37.2,32.2,30.23,ENE,67,0.0,0.0,82,0.00,,,0.00,WUHU21623XXSP,2012-10-04 11:20:00,
2012-10-04 04:25:00,37.2,32.2,30.23,ENE,67,0.0,0.0,82,0.00,,,0.00,WUHU21623XXSP,2012-10-04 11:25:00,
2012-10-04 04:30:00,37.2,32.2,30.23,ENE,67,0.0,0.0,82,0.00,,,0.00,WUHU21623XXSP,2012-10-04 11:30:00,
2012-10-04 04:35:00,37.2,32.5,30.23,ENE,67,0.0,0.0,83,0.00,,,0.00,WUHU21623XXSP,2012-10-04 11:35:00,
2012-10-04 04:40:00,37.2,32.5,30.23,ENE,67,0.0,0.0,83,0.00,,,0.00,WUHU21623XXSP,2012-10-04 11:40:00,
2012-10-04 04:45:00,37.0,32.3,30.23,ENE,67,0.0,0.0,83,0.00,,,0.00,WUHU21623XXSP,2012-10-04 11:45:00,
2012-10-04 04:50:00,37.0,32.3,30.23,East,90,0.0,0.0,83,0.00,,,0.00,WUHU21623XXSP,2012-10-04 11:50:00,
2012-10-04 04:55:00,36.9,32.1,30.23,ESE,112,0.0,0.0,83,0.00,,,0.00,WUHU21623XXSP,2012-10-04 11:55:00,
2012-10-04 05:00:00,36.9,32.4,30.23,ESE,112,0.0,0.0,84,0.00,,,0.00,WUHU21623XXSP,2012-10-04 12:00:00,
2012-10-04 05:05:00,36.7,32.3,30.23,ESE,112,0.0,0.0,84,0.00,,,0.00,WUHU21623XXSP,2012-10-04 12:05:00,
2012-10-04 05:10:00,36.7,32.3,30.23,ESE,112,0.0,0.0,84,0.00,,,0.00,WUHU21623XXSP,2012-10-04 12:10:00,
2012-10-04 05:15:00,36.7,32.3,30.23,ESE,112,0.0,0.0,84,0.00,,,0.00,WUHU21623XXSP,2012-10-04 12:15:00,
2012-10-04 05:20:00,36.7,32.3,30.23,ESE,112,0.0,0.0,84,0.00,,,0.00,WUHU21623XXSP,2012-10-04 12:20:00,
2012-10-04 05:25:00,36.7,32.3,30.23,ESE,112,0.0,0.0,84,0.00,,,0.00,WUHU21623XXSP,2012-10-04 12:25:00,
2012-10-04 05:30:00,36.7,32.3,30.23,ESE,112,0.0,0.0,84,0.00,,,0.00,WUHU21623XXSP,2012-10-04 12:30:00,
2012-10-04 05:35:00,36.7,32.3,30.23,ESE,112,0.0,0.0,84,0.00,,,0.00,WUHU21623XXSP,2012-10-04 12:35:00,
2012-10-04 05:40:00,36.7,32.3,30.23,ESE,112,0.0,0.0,84,0.00,,,0.00,WUHU21623XXSP,2012-10-04 12:40:00,
2012-10-04 05:45:00,36.5,32.1,30.24,ESE,112,0.0,0.0,84,0.00,,,0.00,WUHU21623XXSP,2012-10-04 12:45:00,
2012-10-04 05:50:00,36.3,31.6,30.23,ESE,112,0.0,0.0,83,0.00,,,0.00,WUHU21623XXSP,2012-10-04 12:50:00,
2012-10-04 05:55:00,36.3,31.6,30.24,ESE,112,0.0,0.0,83,0.00,,,0.00,WUHU21623XXSP,2012-10-04 12:55:00,
2012-10-04 06:00:00,36.1,31.4,30.24,ESE,112,0.0,0.0,83,0.00,,,0.00,WUHU21623XXSP,2012-10-04 13:00:00,
2012-10-04 06:05:00,36.0,31.2,30.24,ESE,112,0.0,0.0,83,0.00,,,0.00,WUHU21623XXSP,2012-10-04 13:05:00,
2012-10-04 06:10:00,35.8,31.1,30.24,ESE,112,0.0,0.0,83,0.00,,,0.00,WUHU21623XXSP,2012-10-04 13:10:00,
2012-10-04 06:15:00,35.8,31.1,30.24,ESE,112,0.0,0.0,83,0.00,,,0.00,WUHU21623XXSP,2012-10-04 13:15:00,
2012-10-04 06:20:00,35.8,31.1,30.24,ESE,112,0.0,0.0,83,0.00,,,0.00,WUHU21623XXSP,2012-10-04 13:20:00,
2012-10-04 06:25:00,35.8,31.1,30.24,ESE,112,0.0,0.0,83,0.00,,,0.00,WUHU21623XXSP,2012-10-04 13:25:00,
2012-10-04 06:30:00,35.8,31.4,30.24,ESE,112,0.0,0.0,84,0.00,,,0.00,WUHU21623XXSP,2012-10-04 13:30:00,
2012-10-04 06:35:00,35.8,31.4,30.24,ESE,112,0.0,0.0,84,0.00,,,0.00,WUHU21623XXSP,2012-10-04 13:35:00,
2012-10-04 06:40:00,35.8,31.4,30.24,ESE,112,0.0,0.0,84,0.00,,,0.00,WUHU21623XXSP,2012-10-04 13:40:00,
2012-10-04 06:45:00,35.4,30.7,30.24,ESE,112,0.0,0.0,83,0.00,,,0.00,WUHU21623XXSP,2012-10-04 13:45:00,
2012-10-04 06:50:00,35.4,31.0,30.24,ESE,112,0.0,0.0,84,0.00,,,0.00,WUHU21623XXSP,2012-10-04 13:50:00,
2012-10-04 06:55:00,35.4,30.7,30.23,ESE,112,0.0,0.0,83,0.00,,,0.00,WUHU21623XXSP,2012-10-04 13:55:00,
2012-10-04 07:00:00,35.2,30.5,30.24,ESE,112,0.0,0.0,83,0.00,,,0.00,WUHU21623XXSP,2012-10-04 14:00:00,
2012-10-04 07:05:00,35.2,30.5,30.24,ESE,112,0.0,0.0,84,0.00,,,0.00,WUHU21623XXSP,2012-10-04 14:05:00,
2012-10-04 07:10:00,35.2,30.8,30.24,ESE,112,0.0,0.0,84,0.00,,,0.00,WUHU21623XXSP,2012-10-04 14:10:00,
2012-10-04 07:15:00,35.2,30.8,30.24,ESE,112,0.0,0.0,84,0.00,,,0.00,WUHU21623XXSP,2012-10-04 14:15:00,
2012-10-04 07:20:00,35.2,30.8,30.24,ESE,112,0.0,0.0,84,0.00,,,0.00,WUHU21623XXSP,2012-10-04 14:20:00,
2012-10-04 07:25:00,35.2,30.8,30.24,ESE,112,0.0,0.0,84,0.00,,,0.00,WUHU21623XXSP,2012-10-04 14:25:00,
2012-10-04 07:30:00,34.9,30.5,30.24,ESE,112,0.0,0.0,84,0.00,,,0.00,WUHU21623XXSP,2012-10-04 14:30:00,
2012-10-04 07:35:00,34.9,30.5,30.24,ESE,112,0.0,0.0,84,0.00,,,0.00,WUHU21623XXSP,2012-10-04 14:35:00,
2012-10-04 07:40:00,34.9,30.2,30.25,ESE,112,0.0,0.0,83,0.00,,,0.00,WUHU21623XXSP,2012-10-04 14:40:00,
2012-10-04 07:45:00,34.7,30.3,30.25,ESE,112,0.0,0.0,84,0.00,,,0.00,WUHU21623XXSP,2012-10-04 14:45:00,
2012-10-04 07:50:00,34.9,30.5,30.24,ESE,112,0.0,0.0,84,0.00,,,0.00,WUHU21623XXSP,2012-10-04 14:50:00,
2012-10-04 07:55:00,34.9,30.5,30.24,ESE,112,0.0,0.0,84,0.00,,,0.00,WUHU21623XXSP,2012-10-04 14:55:00,
2012-10-04 08:00:00,34.9,30.5,30.25,ESE,112,0.0,0.0,84,0.00,,,0.00,WUHU21623XXSP,2012-10-04 15:00:00,
2012-10-04 08:05:00,34.9,30.5,30.25,ESE,112,0.0,0.0,84,0.00,,,0.00,WUHU21623XXSP,2012-10-04 15:05:00,
2012-10-04 08:10:00,35.2,31.1,30.24,ESE,112,0.0,0.0,85,0.00,,,0.00,WUHU21623XXSP,2012-10-04 15:10:00,
2012-10-04 08:15:00,35.4,31.3,30.25,ESE,112,0.0,0.0,85,0.00,,,0.00,WUHU21623XXSP,2012-10-04 15:15:00,
2012-10-04 08:20:00,35.4,31.3,30.25,ESE,112,0.0,0.0,85,0.00,,,0.00,WUHU21623XXSP,2012-10-04 15:20:00,
2012-10-04 08:25:00,35.4,31.3,30.25,ESE,112,0.0,0.0,85,0.00,,,0.00,WUHU21623XXSP,2012-10-04 15:25:00,
2012-10-04 08:30:00,35.6,31.5,30.25,ESE,112,0.0,0.0,85,0.00,,,0.00,WUHU21623XXSP,2012-10-04 15:30:00,
2012-10-04 08:35:00,35.4,31.0,30.25,ESE,112,0.0,0.0,84,0.00,,,0.00,WUHU21623XXSP,2012-10-04 15:35:00,
2012-10-04 08:40:00,35.8,31.6,30.25,ESE,112,0.0,0.0,85,0.00,,,0.00,WUHU21623XXSP,2012-10-04 15:40:00,
2012-10-04 08:45:00,35.8,31.6,30.26,ESE,112,0.0,0.0,85,0.00,,,0.00,WUHU21623XXSP,2012-10-04 15:45:00,
2012-10-04 08:50:00,35.8,31.6,30.26,ESE,112,0.0,0.0,85,0.00,,,0.00,WUHU21623XXSP,2012-10-04 15:50:00,
2012-10-04 08:55:00,36.0,31.8,30.26,ESE,112,0.0,0.0,85,0.00,,,0.00,WUHU21623XXSP,2012-10-04 15:55:00,
2012-10-04 09:00:00,36.3,32.0,30.26,ESE,112,0.0,0.0,85,0.00,,,0.00,WUHU21623XXSP,2012-10-04 16:00:00,
2012-10-04 09:05:00,36.3,32.5,30.26,ESE,112,0.0,0.0,86,0.00,,,0.00,WUHU21623XXSP,2012-10-04 16:05:00,
2012-10-04 09:10:00,36.7,32.8,30.26,ESE,112,0.0,0.0,86,0.00,,,0.00,WUHU21623XXSP,2012-10-04 16:10:00,
2012-10-04 09:15:00,37.0,33.2,30.26,ESE,112,0.0,0.0,86,0.00,,,0.00,WUHU21623XXSP,2012-10-04 16:15:00,
2012-10-04 09:20:00,37.2,33.4,30.26,ESE,112,0.0,0.0,86,0.00,,,0.00,WUHU21623XXSP,2012-10-04 16:20:00,
2012-10-04 09:25:00,37.8,33.9,30.26,ESE,112,0.0,0.0,86,0.00,,,0.00,WUHU21623XXSP,2012-10-04 16:25:00,
2012-10-04 09:30:00,38.1,34.3,30.25,ESE,112,0.0,0.0,86,0.00,,,0.00,WUHU21623XXSP,2012-10-04 16:30:00,
2012-10-04 09:35:00,38.3,34.4,30.25,ESE,112,0.0,0.0,86,0.00,,,0.00,WUHU21623XXSP,2012-10-04 16:35:00,
2012-10-04 09:40:00,38.7,34.8,30.26,ESE,112,0.0,0.0,86,0.00,,,0.00,WUHU21623XXSP,2012-10-04 16:40:00,
2012-10-04 09:45:00,39.0,35.2,30.26,ESE,112,0.0,0.0,86,0.00,,,0.00,WUHU21623XXSP,2012-10-04 16:45:00,
2012-10-04 09:50:00,39.4,35.2,30.26,ESE,112,0.0,0.0,85,0.00,,,0.00,WUHU21623XXSP,2012-10-04 16:50:00,
2012-10-04 09:55:00,39.7,35.6,30.26,ESE,112,0.0,0.0,85,0.00,,,0.00,WUHU21623XXSP,2012-10-04 16:55:00,
2012-10-04 10:00:00,39.7,35.6,30.26,ESE,112,0.0,0.0,85,0.00,,,0.00,WUHU21623XXSP,2012-10-04 17:00:00,
2012-10-04 10:05:00,39.7,35.6,30.25,ESE,112,0.0,0.0,85,0.00,,,0.00,WUHU21623XXSP,2012-10-04 17:05:00,
2012-10-04 10:10:00,41.5,36.4,30.25,ESE,112,0.0,0.0,82,0.00,,,0.00,WUHU21623XXSP,2012-10-04 17:10:00,
2012-10-04 10:15:00,42.3,37.1,30.26,ENE,67,0.0,0.0,82,0.00,,,0.00,WUHU21623XXSP,2012-10-04 17:15:00,
2012-10-04 10:20:00,42.4,37.3,30.26,ENE,67,0.0,0.0,82,0.00,,,0.00,WUHU21623XXSP,2012-10-04 17:20:00,
2012-10-04 10:25:00,43.3,37.9,30.26,NE,45,0.0,0.0,81,0.00,,,0.00,WUHU21623XXSP,2012-10-04 17:25:00,
2012-10-04 10:30:00,44.2,38.5,30.26,NE,45,0.0,0.0,80,0.00,,,0.00,WUHU21623XXSP,2012-10-04 17:30:00,
2012-10-04 10:35:00,44.8,38.7,30.26,NE,45,0.0,0.0,79,0.00,,,0.00,WUHU21623XXSP,2012-10-04 17:35:00,
2012-10-04 10:40:00,45.3,38.9,30.26,NE,45,0.0,0.0,78,0.00,,,0.00,WUHU21623XXSP,2012-10-04 17:40:00,
2012-10-04 10:45:00,45.9,39.1,30.25,NE,45,0.0,0.0,77,0.00,,,0.00,WUHU21623XXSP,2012-10-04 17:45:00,
2012-10-04 10:50:00,46.8,39.6,30.25,NE,45,0.0,0.0,76,0.00,,,0.00,WUHU21623XXSP,2012-10-04 17:50:00,
2012-10-04 10:55:00,47.3,40.1,30.26,SSW,202,0.0,0.0,76,0.00,,,0.00,WUHU21623XXSP,2012-10-04 17:55:00,
2012-10-04 11:00:00,48.0,40.4,30.26,SSW,202,0.0,0.0,75,0.00,,,0.00,WUHU21623XXSP,2012-10-04 18:00:00,
2012-10-04 11:05:00,48.6,40.6,30.26,SSW,202,0.0,0.0,74,0.00,,,0.00,WUHU21623XXSP,2012-10-04 18:05:00,
2012-10-04 11:10:00,49.1,41.1,30.25,SSW,202,0.0,0.0,74,0.00,,,0.00,WUHU21623XXSP,2012-10-04 18:10:00,
2012-10-04 11:15:00,49.8,41.5,30.25,SSW,202,0.0,0.0,73,0.00,,,0.00,WUHU21623XXSP,2012-10-04 18:15:00,
2012-10-04 11:20:00,50.4,41.7,30.25,SSW,202,0.0,0.0,72,0.00,,,0.00,WUHU21623XXSP,2012-10-04 18:20:00,
2012-10-04 11:25:00,50.7,41.7,30.25,SSE,157,0.0,0.0,71,0.00,,,0.00,WUHU21623XXSP,2012-10-04 18:25:00,
2012-10-04 11:30:00,51.6,42.3,30.25,SSE,157,0.0,0.0,70,0.00,,,0.00,WUHU21623XXSP,2012-10-04 18:30:00,
2012-10-04 11:35:00,52.2,42.8,30.25,South,180,0.0,0.0,70,0.00,,,0.00,WUHU21623XXSP,2012-10-04 18:35:00,
2012-10-04 11:40:00,52.7,42.0,30.25,South,180,0.0,0.0,67,0.00,,,0.00,WUHU21623XXSP,2012-10-04 18:40:00,
2012-10-04 11:45:00,53.2,42.1,30.25,SW,225,0.0,0.0,66,0.00,,,0.00,WUHU21623XXSP,2012-10-04 18:45:00,
2012-10-04 11:50:00,53.6,41.9,30.25,SW,225,0.0,0.0,65,0.00,,,0.00,WUHU21623XXSP,2012-10-04 18:50:00,
2012-10-04 11:55:00,54.3,42.8,30.25,SSE,157,0.0,0.0,65,0.00,,,0.00,WUHU21623XXSP,2012-10-04 18:55:00,
2012-10-04 12:00:00,54.7,42.7,30.25,NE,45,0.0,0.0,64,0.00,,,0.00,WUHU21623XXSP,2012-10-04 19:00:00,
2012-10-04 12:05:00,55.2,42.8,30.25,SW,225,0.0,0.0,63,0.00,,,0.00,WUHU21623XXSP,2012-10-04 19:05:00,
2012-10-04 12:10:00,55.9,43.1,30.25,SW,225,0.0,0.0,62,0.00,,,0.00,WUHU21623XXSP,2012-10-04 19:10:00,
2012-10-04 12:15:00,56.1,42.8,30.25,West,270,0.0,0.0,61,0.00,,,0.00,WUHU21623XXSP,2012-10-04 19:15:00,
2012-10-04 12:20:00,56.5,42.8,30.25,NW,315,0.0,0.0,60,0.00,,,0.00,WUHU21623XXSP,2012-10-04 19:20:00,
2012-10-04 12:25:00,56.8,42.2,30.25,North,0,0.0,0.0,58,0.00,,,0.00,WUHU21623XXSP,2012-10-04 19:25:00,
2012-10-04 12:30:00,57.0,41.9,30.25,North,0,0.0,0.0,57,0.00,,,0.00,WUHU21623XXSP,2012-10-04 19:30:00,
2012-10-04 12:35:00,57.4,41.8,30.24,SW,225,0.0,0.0,56,0.00,,,0.00,WUHU21623XXSP,2012-10-04 19:35:00,
2012-10-04 12:40:00,57.9,42.8,30.24,SW,225,0.0,0.0,57,0.00,,,0.00,WUHU21623XXSP,2012-10-04 19:40:00,
2012-10-04 12:45:00,58.3,43.1,30.24,SW,225,0.0,0.0,57,0.00,,,0.00,WUHU21623XXSP,2012-10-04 19:45:00,
2012-10-04 12:50:00,58.6,42.9,30.24,SW,225,0.0,0.0,56,0.00,,,0.00,WUHU21623XXSP,2012-10-04 19:50:00,
2012-10-04 12:55:00,59.0,42.3,30.24,WNW,292,0.0,0.0,54,0.00,,,0.00,WUHU21623XXSP,2012-10-04 19:55:00,
2012-10-04 13:00:00,59.2,42.5,30.24,NNW,337,0.0,0.0,53,0.00,,,0.00,WUHU21623XXSP,2012-10-04 20:00:00,
2012-10-04 13:05:00,59.5,42.4,30.23,North,0,0.0,0.0,53,0.00,,,0.00,WUHU21623XXSP,2012-10-04 20:05:00,
2012-10-04 13:10:00,59.7,42.0,30.24,West,270,0.0,0.0,52,0.00,,,0.00,WUHU21623XXSP,2012-10-04 20:10:00,
2012-10-04 13:15:00,59.9,42.7,30.24,SW,225,0.0,0.0,53,0.00,,,0.00,WUHU21623XXSP,2012-10-04 20:15:00,
2012-10-04 13:20:00,60.4,42.7,30.23,SSE,157,0.0,0.0,52,0.00,,,0.00,WUHU21623XXSP,2012-10-04 20:20:00,
2012-10-04 13:25:00,60.6,42.4,30.23,North,0,0.0,0.0,51,0.00,,,0.00,WUHU21623XXSP,2012-10-04 20:25:00,
2012-10-04 13:30:00,60.6,42.4,30.23,NNW,337,0.0,0.0,51,0.00,,,0.00,WUHU21623XXSP,2012-10-04 20:30:00,
2012-10-04 13:35:00,61.0,42.7,30.23,NNE,22,0.0,0.0,51,0.00,,,0.00,WUHU21623XXSP,2012-10-04 20:35:00,
2012-10-04 13:40:00,61.0,42.2,30.23,NW,315,0.0,0.0,50,0.00,,,0.00,WUHU21623XXSP,2012-10-04 20:40:00,
2012-10-04 13:45:00,61.2,41.8,30.23,North,0,0.0,0.0,49,0.00,,,0.00,WUHU21623XXSP,2012-10-04 20:45:00,
2012-10-04 13:50:00,61.3,42.6,30.23,NW,315,0.0,0.0,50,0.00,,,0.00,WUHU21623XXSP,2012-10-04 20:50:00,
2012-10-04 13:55:00,61.3,42.6,30.23,SW,225,0.0,0.0,50,0.00,,,0.00,WUHU21623XXSP,2012-10-04 20:55:00,
2012-10-04 14:00:00,61.5,42.7,30.23,SW,225,0.0,0.0,50,0.00,,,0.00,WUHU21623XXSP,2012-10-04 21:00:00,
2012-10-04 14:05:00,61.7,42.7,30.22,West,270,0.0,0.0,49,0.00,,,0.00,WUHU21623XXSP,2012-10-04 21:05:00,
2012-10-04 14:10:00,62.1,43.2,30.23,SE,135,0.0,0.0,50,0.00,,,0.00,WUHU21623XXSP,2012-10-04 21:10:00,
2012-10-04 14:15:00,62.2,42.8,30.22,SE,135,0.0,0.0,49,0.00,,,0.00,WUHU21623XXSP,2012-10-04 21:15:00,
2012-10-04 14:20:00,62.2,42.8,30.22,West,270,0.0,0.0,49,0.00,,,0.00,WUHU21623XXSP,2012-10-04 21:20:00,
2012-10-04 14:25:00,62.4,42.4,30.22,NNW,337,0.0,0.0,48,0.00,,,0.00,WUHU21623XXSP,2012-10-04 21:25:00,
2012-10-04 14:30:00,62.4,42.4,30.22,North,0,0.0,0.0,48,0.00,,,0.00,WUHU21623XXSP,2012-10-04 21:30:00,
2012-10-04 14:35:00,62.4,41.8,30.21,North,0,0.0,0.0,47,0.00,,,0.00,WUHU21623XXSP,2012-10-04 21:35:00,
2012-10-04 14:40:00,62.6,41.8,30.21,ESE,112,0.0,0.0,48,0.00,,,0.00,WUHU21623XXSP,2012-10-04 21:40:00,
2012-10-04 14:45:00,62.6,42.5,30.21,West,270,0.0,0.0,48,0.00,,,0.00,WUHU21623XXSP,2012-10-04 21:45:00,
2012-10-04 14:50:00,62.8,42.7,30.21,NNW,337,0.0,0.0,48,0.00,,,0.00,WUHU21623XXSP,2012-10-04 21:50:00,
2012-10-04 14:55:00,62.8,42.1,30.21,NNW,337,0.0,0.0,47,0.00,,,0.00,WUHU21623XXSP,2012-10-04 21:55:00,
2012-10-04 15:00:00,63.0,42.9,30.21,West,270,0.0,0.0,48,0.00,,,0.00,WUHU21623XXSP,2012-10-04 22:00:00,
2012-10-04 15:05:00,63.0,41.7,30.21,WSW,247,0.0,0.0,47,0.00,,,0.00,WUHU21623XXSP,2012-10-04 22:05:00,
2012-10-04 15:10:00,63.1,43.0,30.21,NNW,337,0.0,0.0,48,0.00,,,0.00,WUHU21623XXSP,2012-10-04 22:10:00,
2012-10-04 15:15:00,63.1,43.0,30.21,SSW,202,0.0,0.0,48,0.00,,,0.00,WUHU21623XXSP,2012-10-04 22:15:00,
2012-10-04 15:20:00,63.0,43.4,30.21,SSE,157,0.0,0.0,49,0.00,,,0.00,WUHU21623XXSP,2012-10-04 22:20:00,
2012-10-04 15:25:00,63.0,43.0,30.21,NW,315,0.0,0.0,48,0.00,,,0.00,WUHU21623XXSP,2012-10-04 22:25:00,
2012-10-04 15:30:00,63.0,42.9,30.21,WNW,292,0.0,0.0,48,0.00,,,0.00,WUHU21623XXSP,2012-10-04 22:30:00,
2012-10-04 15:35:00,63.0,42.9,30.21,ENE,67,0.0,0.0,48,0.00,,,0.00,WUHU21623XXSP,2012-10-04 22:35:00,
2012-10-04 15:40:00,63.0,43.4,30.21,NW,315,0.0,0.0,49,0.00,,,0.00,WUHU21623XXSP,2012-10-04 22:40:00,
2012-10-04 15:45:00,63.0,43.4,30.21,SW,225,0.0,0.0,49,0.00,,,0.00,WUHU21623XXSP,2012-10-04 22:45:00,
2012-10-04 15:50:00,63.0,43.4,30.21,WSW,247,0.0,0.0,49,0.00,,,0.00,WUHU21623XXSP,2012-10-04 22:50:00,
2012-10-04 15:55:00,62.8,42.7,30.21,NNW,337,0.0,0.0,48,0.00,,,0.00,WUHU21623XXSP,2012-10-04 22:55:00,
2012-10-04 16:00:00,62.4,41.8,30.21,North,0,0.0,0.0,47,0.00,,,0.00,WUHU21623XXSP,2012-10-04 23:00:00,
2012-10-04 16:05:00,62.4,41.8,30.21,NNW,337,0.0,0.0,47,0.00,,,0.00,WUHU21623XXSP,2012-10-04 23:05:00,
2012-10-04 16:10:00,62.4,42.4,30.21,NW,315,0.0,0.0,48,0.00,,,0.00,WUHU21623XXSP,2012-10-04 23:10:00,
2012-10-04 16:15:00,62.2,41.6,30.21,WNW,292,0.0,0.0,47,0.00,,,0.00,WUHU21623XXSP,2012-10-04 23:15:00,
2012-10-04 16:20:00,62.2,42.2,30.21,NNW,337,0.0,0.0,48,0.00,,,0.00,WUHU21623XXSP,2012-10-04 23:20:00,
2012-10-04 16:25:00,62.1,41.5,30.21,NNW,337,0.0,0.0,47,0.00,,,0.00,WUHU21623XXSP,2012-10-04 23:25:00,
2012-10-04 16:30:00,61.9,41.3,30.20,NNW,337,0.0,0.0,47,0.00,,,0.00,WUHU21623XXSP,2012-10-04 23:30:00,
2012-10-04 16:35:00,61.7,41.2,30.20,NNW,337,0.0,0.0,47,0.00,,,0.00,WUHU21623XXSP,2012-10-04 23:35:00,
2012-10-04 16:40:00,61.7,41.2,30.20,NNW,337,0.0,0.0,47,0.00,,,0.00,WUHU21623XXSP,2012-10-04 23:40:00,
2012-10-04 16:45:00,61.5,41.6,30.20,NW,315,0.0,0.0,48,0.00,,,0.00,WUHU21623XXSP,2012-10-04 23:45:00,
2012-10-04 16:50:00,61.5,41.6,30.20,NW,315,0.0,0.0,48,0.00,,,0.00,WUHU21623XXSP,2012-10-04 23:50:00,
2012-10-04 16:55:00,61.3,41.4,30.20,NNW,337,0.0,0.0,48,0.00,,,0.00,WUHU21623XXSP,2012-10-04 23:55:00,
2012-10-04 17:00:00,61.3,41.4,30.20,NNW,337,0.0,0.0,48,0.00,,,0.00,WUHU21623XXSP,2012-10-05 00:00:00,
2012-10-04 17:05:00,61.3,42.0,30.20,NW,315,0.0,0.0,49,0.00,,,0.00,WUHU21623XXSP,2012-10-05 00:05:00,
2012-10-04 17:10:00,61.2,42.4,30.20,NW,315,0.0,0.0,50,0.00,,,0.00,WUHU21623XXSP,2012-10-05 00:10:00,
2012-10-04 17:15:00,61.0,42.2,30.20,SSW,202,0.0,0.0,50,0.00,,,0.00,WUHU21623XXSP,2012-10-05 00:15:00,
2012-10-04 17:20:00,60.8,42.1,30.20,NNW,337,0.0,0.0,50,0.00,,,0.00,WUHU21623XXSP,2012-10-05 00:20:00,
2012-10-04 17:25:00,60.6,41.9,30.20,North,0,0.0,0.0,50,0.00,,,0.00,WUHU21623XXSP,2012-10-05 00:25:00,
2012-10-04 17:30:00,60.6,41.9,30.20,NNW,337,0.0,0.0,50,0.00,,,0.00,WUHU21623XXSP,2012-10-05 00:30:00,
2012-10-04 17:35:00,60.4,42.2,30.20,NNW,337,0.0,0.0,51,0.00,,,0.00,WUHU21623XXSP,2012-10-05 00:35:00,
2012-10-04 17:40:00,60.1,41.9,30.20,North,0,0.0,0.0,51,0.00,,,0.00,WUHU21623XXSP,2012-10-05 00:40:00,
2012-10-04 17:45:00,60.1,41.9,30.20,North,0,0.0,0.0,51,0.00,,,0.00,WUHU21623XXSP,2012-10-05 00:45:00,
2012-10-04 17:50:00,59.7,42.0,30.20,NNW,337,0.0,0.0,52,0.00,,,0.00,WUHU21623XXSP,2012-10-05 00:50:00,
2012-10-04 17:55:00,59.4,41.7,30.20,NNW,337,0.0,0.0,52,0.00,,,0.00,WUHU21623XXSP,2012-10-05 00:55:00,
2012-10-04 18:00:00,59.2,42.0,30.20,NNW,337,0.0,0.0,53,0.00,,,0.00,WUHU21623XXSP,2012-10-05 01:00:00,
2012-10-04 18:05:00,58.8,41.7,30.20,NNW,337,0.0,0.0,53,0.00,,,0.00,WUHU21623XXSP,2012-10-05 01:05:00,
2012-10-04 18:10:00,58.6,42.0,30.20,North,0,0.0,0.0,54,0.00,,,0.00,WUHU21623XXSP,2012-10-05 01:10:00,
2012-10-04 18:15:00,58.3,42.2,30.20,NNE,22,0.0,0.0,55,0.00,,,0.00,WUHU21623XXSP,2012-10-05 01:15:00,
2012-10-04 18:20:00,57.9,41.8,30.20,North,0,0.0,0.0,55,0.00,,,0.00,WUHU21623XXSP,2012-10-05 01:20:00,
2012-10-04 18:26:00,57.7,42.1,30.20,WNW,292,0.0,0.0,56,0.00,,,0.00,WUHU21623XXSP,2012-10-05 01:26:00,
2012-10-04 18:31:00,57.6,42.4,30.20,WNW,292,0.0,0.0,57,0.00,,,0.00,WUHU21623XXSP,2012-10-05 01:31:00,
2012-10-04 18:36:00,57.4,42.3,30.20,WNW,292,0.0,0.0,57,0.00,,,0.00,WUHU21623XXSP,2012-10-05 01:36:00,
2012-10-04 18:40:00,57.0,41.5,30.20,NW,315,0.0,0.0,56,0.00,,,0.00,WUHU21623XXSP,2012-10-05 01:40:00,
2012-10-04 18:45:00,57.0,41.5,30.19,NNW,337,0.0,0.0,56,0.00,,,0.00,WUHU21623XXSP,2012-10-05 01:45:00,
2012-10-04 18:50:00,56.8,41.3,30.19,NNW,337,0.0,0.0,56,0.00,,,0.00,WUHU21623XXSP,2012-10-05 01:50:00,
2012-10-04 18:55:00,56.5,41.4,30.19,NNW,337,0.0,0.0,57,0.00,,,0.00,WUHU21623XXSP,2012-10-05 01:55:00,
2012-10-04 19:00:00,56.3,41.7,30.20,WNW,292,0.0,0.0,58,0.00,,,0.00,WUHU21623XXSP,2012-10-05 02:00:00,
2012-10-04 19:05:00,55.9,41.3,30.20,WNW,292,0.0,0.0,58,0.00,,,0.00,WUHU21623XXSP,2012-10-05 02:05:00,
2012-10-04 19:11:00,55.2,41.3,30.20,WNW,292,0.0,0.0,59,0.00,,,0.00,WUHU21623XXSP,2012-10-05 02:11:00,
2012-10-04 19:16:00,55.0,40.9,30.20,WNW,292,0.0,0.0,59,0.00,,,0.00,WUHU21623XXSP,2012-10-05 02:16:00,
2012-10-04 19:20:00,54.7,41.1,30.20,WNW,292,0.0,0.0,60,0.00,,,0.00,WUHU21623XXSP,2012-10-05 02:20:00,
2012-10-04 19:25:00,54.1,41.0,30.20,WNW,292,0.0,0.0,61,0.00,,,0.00,WUHU21623XXSP,2012-10-05 02:25:00,
2012-10-04 19:30:00,53.8,40.7,30.20,WNW,292,0.0,0.0,61,0.00,,,0.00,WUHU21623XXSP,2012-10-05 02:30:00,
2012-10-04 19:35:00,53.2,40.5,30.20,WNW,292,0.0,0.0,62,0.00,,,0.00,WUHU21623XXSP,2012-10-05 02:35:00,
2012-10-04 19:40:00,52.9,40.9,30.20,WNW,292,0.0,0.0,63,0.00,,,0.00,WUHU21623XXSP,2012-10-05 02:40:00,
2012-10-04 19:45:00,52.7,40.4,30.20,WNW,292,0.0,0.0,63,0.00,,,0.00,WUHU21623XXSP,2012-10-05 02:45:00,
2012-10-04 19:50:00,52.3,40.2,30.20,WNW,292,0.0,0.0,63,0.00,,,0.00,WUHU21623XXSP,2012-10-05 02:50:00,
2012-10-04 19:55:00,52.0,40.1,30.20,WNW,292,0.0,0.0,64,0.00,,,0.00,WUHU21623XXSP,2012-10-05 02:55:00,
2012-10-04 20:00:00,52.0,40.1,30.20,WNW,292,0.0,0.0,64,0.00,,,0.00,WUHU21623XXSP,2012-10-05 03:00:00,
2012-10-04 20:05:00,51.4,40.0,30.20,WNW,292,0.0,0.0,65,0.00,,,0.00,WUHU21623XXSP,2012-10-05 03:05:00,
2012-10-04 20:10:00,50.9,39.9,30.20,WNW,292,0.0,0.0,66,0.00,,,0.00,WUHU21623XXSP,2012-10-05 03:10:00,
2012-10-04 20:15:00,50.7,39.7,30.21,WNW,292,0.0,0.0,66,0.00,,,0.00,WUHU21623XXSP,2012-10-05 03:15:00,
2012-10-04 20:20:00,50.5,40.0,30.20,WNW,292,0.0,0.0,67,0.00,,,0.00,WUHU21623XXSP,2012-10-05 03:20:00,
2012-10-04 20:26:00,50.2,39.6,30.20,WNW,292,0.0,0.0,67,0.00,,,0.00,WUHU21623XXSP,2012-10-05 03:26:00,
2012-10-04 20:31:00,49.8,39.7,30.21,WNW,292,0.0,0.0,68,0.00,,,0.00,WUHU21623XXSP,2012-10-05 03:31:00,
2012-10-04 20:36:00,49.6,39.5,30.20,WNW,292,0.0,0.0,68,0.00,,,0.00,WUHU21623XXSP,2012-10-05 03:36:00,
2012-10-04 20:41:00,49.3,39.5,30.20,WNW,292,0.0,0.0,69,0.00,,,0.00,WUHU21623XXSP,2012-10-05 03:41:00,
2012-10-04 20:46:00,49.1,39.3,30.20,WNW,292,0.0,0.0,69,0.00,,,0.00,WUHU21623XXSP,2012-10-05 03:46:00,
2012-10-04 20:51:00,48.7,39.6,30.20,WNW,292,0.0,0.0,70,0.00,,,0.00,WUHU21623XXSP,2012-10-05 03:51:00,
2012-10-04 20:56:00,48.6,39.4,30.21,WNW,292,0.0,0.0,70,0.00,,,0.00,WUHU21623XXSP,2012-10-05 03:56:00,
2012-10-04 21:00:00,48.4,39.0,30.21,North,0,0.0,0.0,70,0.00,,,0.00,WUHU21623XXSP,2012-10-05 04:00:00,
2012-10-04 21:05:00,48.4,39.0,30.21,North,0,0.0,0.0,70,0.00,,,0.00,WUHU21623XXSP,2012-10-05 04:05:00,
2012-10-04 21:10:00,48.0,38.7,30.21,North,0,0.0,0.0,70,0.00,,,0.00,WUHU21623XXSP,2012-10-05 04:10:00,
2012-10-04 21:15:00,48.0,39.0,30.21,North,0,0.0,0.0,71,0.00,,,0.00,WUHU21623XXSP,2012-10-05 04:15:00,
2012-10-04 21:20:00,47.8,38.9,30.21,NE,45,0.0,0.0,71,0.00,,,0.00,WUHU21623XXSP,2012-10-05 04:20:00,
2012-10-04 21:25:00,47.7,39.0,30.21,NE,45,0.0,0.0,72,0.00,,,0.00,WUHU21623XXSP,2012-10-05 04:25:00,
2012-10-04 21:30:00,47.5,38.9,30.21,NE,45,0.0,0.0,72,0.00,,,0.00,WUHU21623XXSP,2012-10-05 04:30:00,
2012-10-04 21:35:00,47.5,38.9,30.21,NE,45,0.0,0.0,72,0.00,,,0.00,WUHU21623XXSP,2012-10-05 04:35:00,
2012-10-04 21:40:00,47.3,38.7,30.21,ENE,67,0.0,0.0,72,0.00,,,0.00,WUHU21623XXSP,2012-10-05 04:40:00,
2012-10-04 21:45:00,47.1,38.9,30.21,ENE,67,0.0,0.0,73,0.00,,,0.00,WUHU21623XXSP,2012-10-05 04:45:00,
2012-10-04 21:50:00,47.1,38.9,30.21,ENE,67,0.0,0.0,73,0.00,,,0.00,WUHU21623XXSP,2012-10-05 04:50:00,
2012-10-04 21:55:00,46.9,38.7,30.22,ENE,67,0.0,0.0,73,0.00,,,0.00,WUHU21623XXSP,2012-10-05 04:55:00,
2012-10-04 22:00:00,46.8,38.6,30.22,ENE,67,0.0,0.0,73,0.00,,,0.00,WUHU21623XXSP,2012-10-05 05:00:00,
2012-10-04 22:05:00,46.6,38.4,30.22,ENE,67,0.0,0.0,73,0.00,,,0.00,WUHU21623XXSP,2012-10-05 05:05:00,
2012-10-04 22:10:00,46.2,38.4,30.22,ENE,67,0.0,0.0,74,0.00,,,0.00,WUHU21623XXSP,2012-10-05 05:10:00,
2012-10-04 22:15:00,46.2,38.4,30.22,ENE,67,0.0,0.0,74,0.00,,,0.00,WUHU21623XXSP,2012-10-05 05:15:00,
2012-10-04 22:20:00,46.0,38.2,30.22,ENE,67,0.0,0.0,74,0.00,,,0.00,WUHU21623XXSP,2012-10-05 05:20:00,
2012-10-04 22:25:00,45.7,38.2,30.22,ENE,67,0.0,0.0,75,0.00,,,0.00,WUHU21623XXSP,2012-10-05 05:25:00,
2012-10-04 22:30:00,45.7,38.2,30.22,ENE,67,0.0,0.0,75,0.00,,,0.00,WUHU21623XXSP,2012-10-05 05:30:00,
2012-10-04 22:35:00,45.5,38.0,30.23,ENE,67,0.0,0.0,75,0.00,,,0.00,WUHU21623XXSP,2012-10-05 05:35:00,
2012-10-04 22:40:00,45.3,37.9,30.23,ENE,67,0.0,0.0,75,0.00,,,0.00,WUHU21623XXSP,2012-10-05 05:40:00,
2012-10-04 22:45:00,45.1,37.7,30.23,ENE,67,0.0,0.0,75,0.00,,,0.00,WUHU21623XXSP,2012-10-05 05:45:00,
2012-10-04 22:50:00,45.0,37.5,30.23,ENE,67,0.0,0.0,75,0.00,,,0.00,WUHU21623XXSP,2012-10-05 05:50:00,
2012-10-04 22:55:00,44.8,37.7,30.23,ENE,67,0.0,0.0,76,0.00,,,0.00,WUHU21623XXSP,2012-10-05 05:55:00,
2012-10-04 23:00:00,44.8,38.0,30.23,ENE,67,0.0,0.0,77,0.00,,,0.00,WUHU21623XXSP,2012-10-05 06:00:00,
2012-10-04 23:05:00,44.4,37.6,30.23,ENE,67,0.0,0.0,77,0.00,,,0.00,WUHU21623XXSP,2012-10-05 06:05:00,
2012-10-04 23:10:00,44.4,37.6,30.23,ENE,67,0.0,0.0,77,0.00,,,0.00,WUHU21623XXSP,2012-10-05 06:10:00,
2012-10-04 23:15:00,44.4,37.6,30.23,ENE,67,0.0,0.0,77,0.00,,,0.00,WUHU21623XXSP,2012-10-05 06:15:00,
2012-10-04 23:20:00,44.2,37.8,30.23,ENE,67,0.0,0.0,78,0.00,,,0.00,WUHU21623XXSP,2012-10-05 06:20:00,
2012-10-04 23:25:00,44.1,37.8,30.23,ENE,67,0.0,0.0,78,0.00,,,0.00,WUHU21623XXSP,2012-10-05 06:25:00,
2012-10-04 23:30:00,43.9,37.4,30.23,ENE,67,0.0,0.0,78,0.00,,,0.00,WUHU21623XXSP,2012-10-05 06:30:00,
2012-10-04 23:35:00,43.9,37.4,30.23,ENE,67,0.0,0.0,78,0.00,,,0.00,WUHU21623XXSP,2012-10-05 06:35:00,
2012-10-04 23:40:00,43.7,37.3,30.23,ENE,67,0.0,0.0,78,0.00,,,0.00,WUHU21623XXSP,2012-10-05 06:40:00,
2012-10-04 23:45:00,43.7,37.3,30.23,ENE,67,0.0,0.0,78,0.00,,,0.00,WUHU21623XXSP,2012-10-05 06:45:00,
2012-10-04 23:50:00,43.5,37.1,30.23,ENE,67,0.0,0.0,78,0.00,,,0.00,WUHU21623XXSP,2012-10-05 06:50:00,
2012-10-04 23:55:00,43.3,36.9,30.23,ENE,67,0.0,0.0,78,0.00,,,0.00,WUHU21623XXSP,2012-10-05 06:55:00,